createdAt,value
2023-05-21T00:00:50.376Z,40.90
2023-05-21T00:01:51.852Z,40.93
2023-05-21T00:02:53.373Z,41.09
2023-05-21T00:03:54.965Z,41.18
2023-05-21T00:04:56.587Z,40.77
2023-05-21T00:05:58.115Z,40.99
2023-05-21T00:06:59.621Z,41.34
2023-05-21T00:08:01.109Z,40.94
2023-05-21T00:09:02.622Z,41.00
2023-05-21T00:10:04.093Z,41.35
2023-05-21T00:11:05.602Z,41.29
2023-05-21T00:12:07.073Z,41.29
2023-05-21T00:13:08.546Z,41.15
2023-05-21T00:14:10.027Z,41.58
2023-05-21T00:15:11.502Z,41.37
2023-05-21T00:16:13.436Z,41.02
2023-05-21T00:17:14.964Z,41.18
2023-05-21T00:18:16.432Z,41.72
2023-05-21T00:19:18.127Z,41.88
2023-05-21T00:20:19.637Z,41.74
2023-05-21T00:21:21.158Z,41.89
2023-05-21T00:22:22.664Z,41.90
2023-05-21T00:23:24.150Z,41.50
2023-05-21T00:24:25.643Z,41.91
2023-05-21T00:25:27.121Z,41.83
2023-05-21T00:26:28.620Z,42.08
2023-05-21T00:27:30.096Z,41.61
2023-05-21T00:28:31.604Z,42.02
2023-05-21T00:29:33.083Z,42.12
2023-05-21T00:30:34.594Z,41.98
2023-05-21T00:31:36.140Z,41.47
2023-05-21T00:32:37.702Z,42.07
2023-05-21T00:33:39.227Z,42.27
2023-05-21T00:34:40.737Z,41.56
2023-05-21T00:35:42.224Z,42.05
2023-05-21T00:36:43.776Z,41.80
2023-05-21T00:37:45.282Z,41.79
2023-05-21T00:38:46.778Z,42.27
2023-05-21T00:39:48.250Z,41.74
2023-05-21T00:40:49.740Z,41.96
2023-05-21T00:41:51.248Z,42.44
2023-05-21T00:42:52.738Z,42.60
2023-05-21T00:43:54.216Z,42.39
2023-05-21T00:44:55.705Z,42.44
2023-05-21T00:45:57.231Z,42.83
2023-05-21T00:46:58.815Z,42.73
2023-05-21T00:48:00.363Z,42.67
2023-05-21T00:49:01.938Z,42.51
2023-05-21T00:50:03.434Z,42.89
2023-05-21T00:51:04.937Z,42.46
2023-05-21T00:52:06.473Z,42.71
2023-05-21T00:53:07.993Z,42.85
2023-05-21T00:54:09.535Z,42.74
2023-05-21T00:55:11.120Z,42.68
2023-05-21T00:56:12.641Z,42.68
2023-05-21T00:57:14.140Z,42.69
2023-05-21T00:58:15.776Z,42.81
2023-05-21T00:59:17.303Z,42.60
2023-05-21T01:00:18.826Z,42.49
2023-05-21T01:01:20.488Z,42.59
2023-05-21T01:02:22.103Z,42.93
2023-05-21T01:03:23.969Z,42.69
2023-05-21T01:04:25.694Z,42.96
2023-05-21T01:05:27.176Z,42.76
2023-05-21T01:06:28.739Z,42.96
2023-05-21T01:07:30.228Z,42.76
2023-05-21T01:08:31.759Z,42.63
2023-05-21T01:09:33.251Z,42.88
2023-05-21T01:10:34.736Z,42.60
2023-05-21T01:11:36.245Z,42.96
2023-05-21T01:12:37.758Z,43.19
2023-05-21T01:13:39.288Z,43.08
2023-05-21T01:14:40.759Z,42.96
2023-05-21T01:15:42.231Z,43.25
2023-05-21T01:16:44.269Z,42.73
2023-05-21T01:17:45.938Z,43.13
2023-05-21T01:18:47.724Z,43.22
2023-05-21T01:19:49.416Z,42.67
2023-05-21T01:20:50.976Z,42.79
2023-05-21T01:21:52.471Z,43.05
2023-05-21T01:22:53.953Z,43.23
2023-05-21T01:23:55.442Z,42.93
2023-05-21T01:24:56.924Z,43.00
2023-05-21T01:25:58.433Z,42.99
2023-05-21T01:27:00.177Z,42.84
2023-05-21T01:28:01.665Z,43.54
2023-05-21T01:29:03.136Z,43.26
2023-05-21T01:30:04.621Z,43.25
2023-05-21T01:31:06.130Z,43.26
2023-05-21T01:32:07.662Z,43.21
2023-05-21T01:33:09.285Z,43.56
2023-05-21T01:34:10.907Z,43.52
2023-05-21T01:35:12.474Z,43.82
2023-05-21T01:36:13.951Z,43.45
2023-05-21T01:37:15.431Z,43.92
2023-05-21T01:38:17.370Z,43.73
2023-05-21T01:39:18.870Z,43.51
2023-05-21T01:40:20.365Z,43.92
2023-05-21T01:41:21.861Z,44.00
2023-05-21T01:42:23.417Z,43.96
2023-05-21T01:43:24.939Z,43.74
2023-05-21T01:44:26.440Z,43.78
2023-05-21T01:45:27.922Z,44.01
2023-05-21T01:46:29.415Z,44.14
2023-05-21T01:47:31.008Z,44.06
2023-05-21T01:48:32.990Z,44.63
2023-05-21T01:49:34.528Z,44.57
2023-05-21T01:50:35.988Z,44.32
2023-05-21T01:51:37.512Z,44.45
2023-05-21T01:52:39.017Z,44.39
2023-05-21T01:53:40.513Z,44.27
2023-05-21T01:54:42.020Z,44.55
2023-05-21T01:55:43.524Z,44.21
2023-05-21T01:56:45.026Z,44.46
2023-05-21T01:57:46.524Z,44.67
2023-05-21T01:58:48.039Z,44.29
2023-05-21T01:59:49.512Z,44.54
2023-05-21T02:00:51.075Z,44.29
2023-05-21T02:01:52.596Z,44.13
2023-05-21T02:02:54.221Z,44.47
2023-05-21T02:03:55.810Z,44.69
2023-05-21T02:04:57.350Z,44.69
2023-05-21T02:05:58.881Z,44.26
2023-05-21T02:07:00.381Z,44.92
2023-05-21T02:08:01.857Z,44.55
2023-05-21T02:09:03.408Z,44.20
2023-05-21T02:10:04.919Z,44.23
2023-05-21T02:11:06.493Z,44.31
2023-05-21T02:13:26.068Z,44.42
2023-05-21T02:14:28.133Z,44.60
2023-05-21T02:15:29.639Z,44.48
2023-05-21T02:16:31.182Z,44.38
2023-05-21T02:17:32.769Z,44.55
2023-05-21T02:18:34.256Z,44.19
2023-05-21T02:19:35.850Z,44.26
2023-05-21T02:20:37.418Z,43.92
2023-05-21T02:21:38.988Z,44.26
2023-05-21T02:22:40.504Z,44.48
2023-05-21T02:23:42.015Z,44.45
2023-05-21T02:24:43.486Z,44.28
2023-05-21T02:25:44.964Z,44.65
2023-05-21T02:26:46.470Z,44.26
2023-05-21T02:27:47.953Z,44.42
2023-05-21T02:28:49.431Z,44.11
2023-05-21T02:29:51.077Z,44.38
2023-05-21T02:30:52.586Z,44.19
2023-05-21T02:31:54.086Z,44.11
2023-05-21T02:32:55.605Z,44.37
2023-05-21T02:33:57.211Z,43.93
2023-05-21T02:34:58.705Z,44.18
2023-05-21T02:36:00.223Z,44.35
2023-05-21T02:37:01.819Z,44.40
2023-05-21T02:38:03.416Z,44.14
2023-05-21T02:39:04.917Z,44.11
2023-05-21T02:40:06.403Z,44.03
2023-05-21T02:41:07.880Z,44.32
2023-05-21T02:42:09.365Z,44.46
2023-05-21T02:43:10.867Z,44.32
2023-05-21T02:44:12.395Z,44.28
2023-05-21T02:45:13.875Z,44.40
2023-05-21T02:46:15.461Z,44.23
2023-05-21T02:47:16.987Z,44.16
2023-05-21T02:48:18.519Z,44.58
2023-05-21T02:49:20.299Z,44.95
2023-05-21T02:50:21.780Z,44.32
2023-05-21T02:51:23.251Z,44.62
2023-05-21T02:52:24.747Z,44.32
2023-05-21T02:53:26.256Z,44.68
2023-05-21T02:54:27.768Z,45.16
2023-05-21T02:55:29.261Z,44.73
2023-05-21T02:56:30.736Z,44.95
2023-05-21T02:57:32.230Z,44.52
2023-05-21T02:58:33.690Z,44.79
2023-05-21T02:59:35.183Z,44.53
2023-05-21T03:00:36.646Z,44.67
2023-05-21T03:01:38.164Z,44.57
2023-05-21T03:02:39.778Z,44.42
2023-05-21T03:03:41.358Z,44.88
2023-05-21T03:04:42.886Z,44.88
2023-05-21T03:05:44.405Z,45.00
2023-05-21T03:06:45.876Z,45.16
2023-05-21T03:07:47.353Z,45.09
2023-05-21T03:08:48.825Z,44.81
2023-05-21T03:09:50.325Z,44.72
2023-05-21T03:10:51.808Z,44.49
2023-05-21T03:11:53.281Z,44.60
2023-05-21T03:12:54.829Z,44.51
2023-05-21T03:13:56.326Z,45.14
2023-05-21T03:14:57.846Z,44.81
2023-05-21T03:15:59.335Z,45.17
2023-05-21T03:17:00.864Z,45.36
2023-05-21T03:18:02.458Z,44.79
2023-05-21T03:19:04.032Z,45.02
2023-05-21T03:20:05.754Z,45.22
2023-05-21T03:21:07.233Z,45.11
2023-05-21T03:22:08.746Z,45.20
2023-05-21T03:23:10.257Z,44.61
2023-05-21T03:24:11.740Z,44.61
2023-05-21T03:25:13.270Z,45.14
2023-05-21T03:26:14.749Z,44.91
2023-05-21T03:27:16.235Z,45.41
2023-05-21T03:28:17.729Z,45.00
2023-05-21T03:29:19.258Z,44.74
2023-05-21T03:30:20.765Z,45.21
2023-05-21T03:31:22.383Z,45.10
2023-05-21T03:32:23.999Z,44.92
2023-05-21T03:33:25.650Z,44.87
2023-05-21T03:34:27.116Z,44.94
2023-05-21T03:35:28.574Z,45.08
2023-05-21T03:36:30.018Z,45.22
2023-05-21T03:37:31.513Z,45.02
2023-05-21T03:38:34.063Z,45.12
2023-05-21T03:39:36.857Z,45.42
2023-05-21T03:40:38.324Z,45.02
2023-05-21T03:41:39.818Z,45.01
2023-05-21T03:42:41.347Z,45.20
2023-05-21T03:43:42.884Z,45.27
2023-05-21T03:44:44.811Z,45.32
2023-05-21T03:45:46.325Z,45.55
2023-05-21T03:46:47.841Z,45.23
2023-05-21T03:47:49.414Z,45.48
2023-05-21T03:48:50.974Z,45.29
2023-05-21T03:49:52.464Z,45.25
2023-05-21T03:50:53.930Z,45.45
2023-05-21T03:51:55.409Z,45.22
2023-05-21T03:52:56.923Z,45.27
2023-05-21T03:53:58.471Z,45.54
2023-05-21T03:54:59.946Z,45.31
2023-05-21T03:56:01.421Z,45.40
2023-05-21T03:57:02.951Z,45.17
2023-05-21T03:58:04.460Z,45.27
2023-05-21T03:59:06.032Z,44.82
2023-05-21T04:00:07.565Z,45.13
2023-05-21T04:01:09.066Z,45.29
2023-05-21T04:02:10.590Z,45.30
2023-05-21T04:03:12.274Z,45.40
2023-05-21T04:04:14.017Z,45.15
2023-05-21T04:05:15.683Z,45.08
2023-05-21T04:06:17.155Z,45.12
2023-05-21T04:07:18.660Z,45.16
2023-05-21T04:08:20.173Z,45.49
2023-05-21T04:09:21.698Z,45.11
2023-05-21T04:10:23.167Z,45.31
2023-05-21T04:11:24.618Z,45.73
2023-05-21T04:12:26.129Z,45.05
2023-05-21T04:13:27.627Z,45.67
2023-05-21T04:14:29.109Z,45.35
2023-05-21T04:15:30.577Z,45.63
2023-05-21T04:16:32.088Z,45.27
2023-05-21T04:17:33.707Z,45.66
2023-05-21T04:18:35.250Z,45.39
2023-05-21T04:19:36.888Z,45.37
2023-05-21T04:20:38.508Z,45.19
2023-05-21T04:21:40.026Z,45.49
2023-05-21T04:22:41.556Z,45.66
2023-05-21T04:23:43.041Z,45.33
2023-05-21T04:24:45.028Z,45.94
2023-05-21T04:25:46.530Z,45.89
2023-05-21T04:26:48.037Z,45.61
2023-05-21T04:27:49.549Z,45.63
2023-05-21T04:28:51.033Z,45.56
2023-05-21T04:29:52.540Z,45.55
2023-05-21T04:30:54.069Z,45.61
2023-05-21T04:31:55.563Z,45.70
2023-05-21T04:32:57.084Z,45.72
2023-05-21T04:33:58.648Z,45.71
2023-05-21T04:35:00.171Z,45.61
2023-05-21T04:36:01.679Z,46.00
2023-05-21T04:37:03.196Z,45.98
2023-05-21T04:38:04.732Z,45.52
2023-05-21T04:39:06.205Z,45.88
2023-05-21T04:40:07.725Z,45.66
2023-05-21T04:41:09.215Z,45.76
2023-05-21T04:42:10.673Z,45.73
2023-05-21T04:43:12.165Z,45.87
2023-05-21T04:44:13.721Z,45.73
2023-05-21T04:45:15.245Z,45.37
2023-05-21T04:46:16.836Z,46.10
2023-05-21T04:47:18.352Z,45.47
2023-05-21T04:48:19.858Z,46.00
2023-05-21T04:49:21.362Z,45.94
2023-05-21T04:50:22.887Z,45.53
2023-05-21T04:51:24.356Z,45.79
2023-05-21T04:52:25.859Z,45.61
2023-05-21T04:53:27.338Z,45.91
2023-05-21T04:54:28.839Z,45.59
2023-05-21T04:55:30.351Z,45.51
2023-05-21T04:56:31.964Z,45.58
2023-05-21T04:57:33.506Z,45.90
2023-05-21T04:58:34.985Z,45.68
2023-05-21T04:59:36.493Z,45.92
2023-05-21T05:00:38.039Z,46.00
2023-05-21T05:01:43.937Z,46.02
2023-05-21T05:02:47.948Z,45.50
2023-05-21T05:03:49.497Z,45.40
2023-05-21T05:04:50.977Z,45.62
2023-05-21T05:05:52.572Z,45.39
2023-05-21T05:06:54.064Z,45.39
2023-05-21T05:07:55.554Z,45.41
2023-05-21T05:08:57.045Z,45.81
2023-05-21T05:09:58.538Z,45.57
2023-05-21T05:11:00.042Z,45.34
2023-05-21T05:12:01.536Z,45.72
2023-05-21T05:13:03.061Z,45.37
2023-05-21T05:14:04.518Z,45.18
2023-05-21T05:15:06.040Z,45.20
2023-05-21T05:16:07.540Z,45.49
2023-05-21T05:17:09.022Z,45.39
2023-05-21T05:18:10.576Z,45.45
2023-05-21T05:19:12.155Z,44.95
2023-05-21T05:20:13.665Z,45.23
2023-05-21T05:21:15.137Z,45.04
2023-05-21T05:22:16.649Z,44.89
2023-05-21T05:23:18.169Z,45.54
2023-05-21T05:24:19.631Z,45.16
2023-05-21T05:25:21.158Z,45.15
2023-05-21T05:26:22.664Z,45.41
2023-05-21T05:27:24.134Z,45.25
2023-05-21T05:28:25.637Z,44.81
2023-05-21T05:29:27.119Z,45.19
2023-05-21T05:30:28.896Z,44.86
2023-05-21T05:31:30.551Z,44.62
2023-05-21T05:32:32.256Z,44.88
2023-05-21T05:33:33.783Z,44.94
2023-05-21T05:34:35.303Z,44.93
2023-05-21T05:35:37.025Z,44.69
2023-05-21T05:36:38.674Z,44.54
2023-05-21T05:37:40.176Z,44.34
2023-05-21T05:38:41.701Z,44.40
2023-05-21T05:39:43.377Z,44.59
2023-05-21T05:40:44.875Z,44.41
2023-05-21T05:41:46.368Z,44.49
2023-05-21T05:42:47.850Z,44.45
2023-05-21T05:43:49.334Z,44.16
2023-05-21T05:44:50.819Z,44.37
2023-05-21T05:45:52.330Z,44.15
2023-05-21T05:46:53.830Z,43.57
2023-05-21T05:47:56.466Z,43.68
2023-05-21T05:48:58.037Z,44.06
2023-05-21T05:49:59.573Z,43.49
2023-05-21T05:51:01.065Z,43.97
2023-05-21T05:52:02.640Z,43.79
2023-05-21T05:53:04.122Z,43.83
2023-05-21T05:54:05.628Z,43.93
2023-05-21T05:55:07.118Z,43.34
2023-05-21T05:56:08.598Z,43.42
2023-05-21T05:57:10.151Z,43.51
2023-05-21T05:58:11.691Z,43.21
2023-05-21T05:59:13.195Z,42.99
2023-05-21T06:00:14.679Z,43.15
2023-05-21T06:01:16.245Z,43.18
2023-05-21T06:02:18.302Z,42.67
2023-05-21T06:03:19.954Z,42.65
2023-05-21T06:04:21.587Z,43.18
2023-05-21T06:05:23.223Z,43.04
2023-05-21T06:06:24.776Z,42.57
2023-05-21T06:07:26.314Z,42.65
2023-05-21T06:08:27.813Z,42.44
2023-05-21T06:09:29.289Z,42.33
2023-05-21T06:10:30.851Z,42.39
2023-05-21T06:11:32.350Z,42.31
2023-05-21T06:12:33.890Z,42.00
2023-05-21T06:13:35.368Z,42.12
2023-05-21T06:14:36.863Z,42.28
2023-05-21T06:15:38.533Z,41.73
2023-05-21T06:16:40.155Z,41.53
2023-05-21T06:17:41.738Z,41.77
2023-05-21T06:18:43.260Z,42.16
2023-05-21T06:19:44.761Z,41.87
2023-05-21T06:20:46.243Z,42.10
2023-05-21T06:21:47.721Z,41.52
2023-05-21T06:22:49.248Z,41.91
2023-05-21T06:23:50.747Z,41.92
2023-05-21T06:24:52.253Z,41.29
2023-05-21T06:25:53.756Z,41.36
2023-05-21T06:26:55.278Z,41.51
2023-05-21T06:27:56.778Z,41.35
2023-05-21T06:28:58.242Z,41.34
2023-05-21T06:29:59.730Z,41.19
2023-05-21T06:31:01.987Z,41.27
2023-05-21T06:32:03.501Z,41.03
2023-05-21T06:33:05.076Z,41.03
2023-05-21T06:34:06.898Z,40.59
2023-05-21T06:35:08.470Z,40.82
2023-05-21T06:36:09.991Z,40.36
2023-05-21T06:37:11.492Z,40.20
2023-05-21T06:38:12.998Z,40.16
2023-05-21T06:39:14.507Z,40.23
2023-05-21T06:40:15.995Z,40.09
2023-05-21T06:41:17.458Z,40.38
2023-05-21T06:42:18.960Z,39.83
2023-05-21T06:43:20.472Z,39.94
2023-05-21T06:44:21.972Z,39.79
2023-05-21T06:45:23.438Z,40.01
2023-05-21T06:46:24.967Z,39.62
2023-05-21T06:47:26.576Z,39.68
2023-05-21T06:48:28.114Z,39.64
2023-05-21T06:49:29.652Z,40.01
2023-05-21T06:50:31.165Z,39.71
2023-05-21T06:51:32.649Z,39.49
2023-05-21T06:52:34.150Z,39.32
2023-05-21T06:53:35.665Z,39.25
2023-05-21T06:54:37.189Z,38.94
2023-05-21T06:55:38.920Z,38.82
2023-05-21T06:56:40.593Z,38.81
2023-05-21T06:57:42.102Z,38.70
2023-05-21T06:58:43.604Z,39.12
2023-05-21T06:59:45.134Z,38.56
2023-05-21T07:00:46.656Z,38.93
2023-05-21T07:01:48.245Z,38.48
2023-05-21T07:02:49.850Z,38.83
2023-05-21T07:03:51.392Z,38.51
2023-05-21T07:04:53.081Z,38.78
2023-05-21T07:05:54.615Z,38.41
2023-05-21T07:06:56.115Z,38.65
2023-05-21T07:07:57.618Z,37.91
2023-05-21T07:08:59.078Z,38.32
2023-05-21T07:10:00.572Z,38.12
2023-05-21T07:11:02.043Z,38.06
2023-05-21T07:12:03.722Z,37.30
2023-05-21T07:13:05.242Z,37.49
2023-05-21T07:14:06.727Z,37.17
2023-05-21T07:15:08.236Z,37.54
2023-05-21T07:16:09.680Z,37.03
2023-05-21T07:17:11.344Z,37.14
2023-05-21T07:18:13.064Z,36.89
2023-05-21T07:19:14.752Z,37.21
2023-05-21T07:20:16.336Z,36.97
2023-05-21T07:21:17.827Z,36.95
2023-05-21T07:22:19.411Z,36.92
2023-05-21T07:23:20.900Z,36.69
2023-05-21T07:24:22.405Z,36.43
2023-05-21T07:25:23.940Z,36.77
2023-05-21T07:26:25.433Z,36.66
2023-05-21T07:27:27.035Z,37.01
2023-05-21T07:28:28.533Z,36.43
2023-05-21T07:29:30.064Z,36.86
2023-05-21T07:30:31.572Z,36.27
2023-05-21T07:31:33.152Z,36.25
2023-05-21T07:32:34.866Z,36.42
2023-05-21T07:33:36.482Z,36.80
2023-05-21T07:34:38.349Z,36.28
2023-05-21T07:35:39.846Z,36.55
2023-05-21T07:36:41.342Z,36.28
2023-05-21T07:37:42.876Z,36.70
2023-05-21T07:38:44.358Z,36.56
2023-05-21T07:39:45.854Z,36.28
2023-05-21T07:40:47.356Z,36.28
2023-05-21T07:41:48.898Z,36.35
2023-05-21T07:42:50.397Z,36.31
2023-05-21T07:43:51.926Z,36.08
2023-05-21T07:44:53.418Z,36.33
2023-05-21T07:45:54.928Z,36.72
2023-05-21T07:46:56.433Z,36.77
2023-05-21T07:47:57.989Z,36.36
2023-05-21T07:48:59.548Z,36.63
2023-05-21T07:50:01.037Z,35.98
2023-05-21T07:51:02.512Z,36.30
2023-05-21T07:52:04.092Z,36.07
2023-05-21T07:53:05.617Z,36.06
2023-05-21T07:54:07.355Z,36.54
2023-05-21T07:55:08.889Z,36.40
2023-05-21T07:56:10.365Z,36.45
2023-05-21T07:57:11.877Z,36.47
2023-05-21T07:58:13.397Z,36.43
2023-05-21T07:59:14.916Z,36.46
2023-05-21T08:00:16.410Z,35.83
2023-05-21T08:01:17.905Z,36.37
2023-05-21T08:02:19.528Z,36.36
2023-05-21T08:03:21.208Z,35.99
2023-05-21T08:04:22.948Z,36.05
2023-05-21T08:05:24.677Z,36.22
2023-05-21T08:06:26.221Z,36.52
2023-05-21T08:07:27.817Z,36.28
2023-05-21T08:08:29.365Z,35.84
2023-05-21T08:09:30.848Z,36.24
2023-05-21T08:10:32.335Z,35.83
2023-05-21T08:11:33.808Z,35.64
2023-05-21T08:12:35.321Z,35.96
2023-05-21T08:13:36.881Z,35.17
2023-05-21T08:14:38.369Z,34.96
2023-05-21T08:15:39.858Z,35.16
2023-05-21T08:16:41.460Z,35.55
2023-05-21T08:17:43.085Z,35.32
2023-05-21T08:18:44.634Z,35.19
2023-05-21T08:19:46.140Z,35.75
2023-05-21T08:20:47.631Z,35.48
2023-05-21T08:21:50.872Z,35.78
2023-05-21T08:22:53.641Z,35.42
2023-05-21T08:23:55.186Z,35.89
2023-05-21T08:24:56.706Z,35.27
2023-05-21T08:25:58.171Z,35.24
2023-05-21T08:26:59.638Z,35.87
2023-05-21T08:28:01.121Z,36.08
2023-05-21T08:29:02.652Z,35.52
2023-05-21T08:30:04.145Z,35.79
2023-05-21T08:31:05.618Z,35.60
2023-05-21T08:32:07.243Z,35.45
2023-05-21T08:33:08.893Z,35.55
2023-05-21T08:34:10.666Z,35.42
2023-05-21T08:35:12.155Z,35.50
2023-05-21T08:36:13.648Z,35.01
2023-05-21T08:37:15.145Z,34.57
2023-05-21T08:38:16.630Z,34.57
2023-05-21T08:39:18.152Z,34.77
2023-05-21T08:40:19.650Z,34.54
2023-05-21T08:41:21.112Z,34.80
2023-05-21T08:42:32.837Z,34.89
2023-05-21T08:43:38.247Z,34.50
2023-05-21T08:44:39.766Z,34.37
2023-05-21T08:45:41.291Z,34.13
2023-05-21T08:46:42.809Z,34.54
2023-05-21T08:47:44.414Z,34.44
2023-05-21T08:48:46.012Z,33.74
2023-05-21T08:49:47.540Z,34.20
2023-05-21T08:50:51.632Z,33.14
2023-05-21T08:51:53.184Z,33.70
2023-05-21T08:52:54.676Z,33.75
2023-05-21T08:53:56.190Z,34.02
2023-05-21T08:54:57.700Z,33.69
2023-05-21T08:55:59.190Z,33.95
2023-05-21T08:57:00.756Z,33.44
2023-05-21T08:58:02.294Z,33.68
2023-05-21T08:59:03.764Z,33.29
2023-05-21T09:00:05.246Z,33.29
2023-05-21T09:01:06.771Z,33.69
2023-05-21T09:02:08.286Z,33.70
2023-05-21T09:03:09.810Z,33.66
2023-05-21T09:04:20.358Z,33.70
2023-05-21T09:05:23.055Z,33.61
2023-05-21T09:06:24.549Z,33.34
2023-05-21T09:07:26.028Z,33.32
2023-05-21T09:08:27.494Z,32.86
2023-05-21T09:09:29.023Z,32.72
2023-05-21T09:10:31.000Z,32.84
2023-05-21T09:11:32.540Z,32.32
2023-05-21T09:12:34.029Z,32.66
2023-05-21T09:13:37.437Z,32.37
2023-05-21T09:14:40.262Z,32.33
2023-05-21T09:15:41.789Z,32.90
2023-05-21T09:16:43.348Z,32.72
2023-05-21T09:17:44.860Z,32.81
2023-05-21T09:18:46.416Z,32.47
2023-05-21T09:19:47.882Z,32.33
2023-05-21T09:20:49.403Z,32.26
2023-05-21T09:21:50.888Z,32.00
2023-05-21T09:22:52.382Z,32.00
2023-05-21T09:23:53.867Z,32.58
2023-05-21T09:24:55.353Z,32.15
2023-05-21T09:25:56.868Z,32.13
2023-05-21T09:26:58.361Z,32.06
2023-05-21T09:27:59.871Z,31.68
2023-05-21T09:29:01.402Z,31.68
2023-05-21T09:30:02.936Z,31.66
2023-05-21T09:31:04.496Z,31.67
2023-05-21T09:32:06.083Z,31.07
2023-05-21T09:33:07.626Z,31.25
2023-05-21T09:34:09.167Z,31.10
2023-05-21T09:35:10.675Z,30.89
2023-05-21T09:36:12.173Z,30.93
2023-05-21T09:37:26.561Z,30.62
2023-05-21T09:38:28.848Z,29.47
2023-05-21T09:39:30.445Z,30.07
2023-05-21T09:40:31.937Z,29.67
2023-05-21T09:41:33.485Z,29.66
2023-05-21T09:42:35.107Z,30.15
2023-05-21T09:43:36.614Z,30.38
2023-05-21T09:44:38.090Z,29.59
2023-05-21T09:45:39.622Z,29.53
2023-05-21T09:46:41.443Z,29.75
2023-05-21T09:47:43.378Z,29.02
2023-05-21T09:48:44.936Z,29.07
2023-05-21T09:49:46.442Z,28.77
2023-05-21T09:50:47.928Z,28.90
2023-05-21T09:51:49.421Z,28.88
2023-05-21T09:52:50.913Z,28.82
2023-05-21T09:53:52.385Z,28.55
2023-05-21T09:54:53.881Z,29.14
2023-05-21T09:55:55.388Z,28.94
2023-05-21T09:56:56.928Z,28.26
2023-05-21T09:57:58.454Z,28.01
2023-05-21T09:58:59.982Z,27.92
2023-05-21T10:00:01.452Z,27.41
2023-05-21T10:01:02.977Z,26.92
2023-05-21T10:02:04.531Z,27.68
2023-05-21T10:03:06.180Z,27.45
2023-05-21T10:04:07.720Z,27.05
2023-05-21T10:05:09.219Z,27.09
2023-05-21T10:06:10.713Z,25.99
2023-05-21T10:07:12.269Z,26.24
2023-05-21T10:08:13.774Z,26.83
2023-05-21T10:09:15.313Z,25.94
2023-05-21T10:10:16.830Z,25.37
2023-05-21T10:11:18.289Z,25.53
2023-05-21T10:12:19.774Z,25.88
2023-05-21T10:13:21.670Z,24.98
2023-05-21T10:14:23.190Z,24.90
2023-05-21T10:15:24.692Z,25.14
2023-05-21T10:16:26.228Z,25.31
2023-05-21T10:17:27.744Z,24.63
2023-05-21T10:18:29.301Z,25.06
2023-05-21T10:19:30.828Z,25.44
2023-05-21T10:20:32.370Z,25.18
2023-05-21T10:21:33.872Z,25.23
2023-05-21T10:22:35.340Z,25.27
2023-05-21T10:23:36.881Z,25.41
2023-05-21T10:24:38.373Z,25.04
2023-05-21T10:25:39.864Z,25.20
2023-05-21T10:26:41.354Z,25.17
2023-05-21T10:27:42.817Z,24.98
2023-05-21T10:28:44.319Z,25.32
2023-05-21T10:29:45.892Z,24.31
2023-05-21T10:30:47.591Z,24.93
2023-05-21T10:31:49.157Z,24.71
2023-05-21T10:32:50.961Z,24.60
2023-05-21T10:33:52.896Z,24.43
2023-05-21T10:34:54.433Z,24.72
2023-05-21T10:35:55.893Z,25.29
2023-05-21T10:36:57.420Z,24.78
2023-05-21T10:37:59.020Z,24.77
2023-05-21T10:39:00.596Z,25.03
2023-05-21T10:40:02.148Z,24.86
2023-05-21T10:41:03.690Z,25.16
2023-05-21T10:42:05.202Z,24.89
2023-05-21T10:43:06.718Z,25.27
2023-05-21T10:44:08.897Z,24.88
2023-05-21T10:45:10.378Z,24.54
2023-05-21T10:46:11.963Z,24.36
2023-05-21T10:47:13.530Z,24.37
2023-05-21T10:48:15.087Z,24.33
2023-05-21T10:49:16.602Z,24.09
2023-05-21T10:50:18.110Z,24.18
2023-05-21T10:51:19.608Z,24.24
2023-05-21T10:52:21.120Z,23.64
2023-05-21T10:53:22.629Z,23.34
2023-05-21T10:54:24.314Z,23.80
2023-05-21T10:55:25.829Z,23.41
2023-05-21T10:56:27.344Z,24.09
2023-05-21T10:57:28.896Z,23.86
2023-05-21T10:58:30.367Z,23.96
2023-05-21T10:59:31.876Z,24.45
2023-05-21T11:00:33.394Z,24.11
2023-05-21T11:01:34.916Z,24.24
2023-05-21T11:02:36.546Z,24.21
2023-05-21T11:03:38.263Z,24.24
2023-05-21T11:04:39.999Z,24.39
2023-05-21T11:05:41.642Z,23.82
2023-05-21T11:06:43.162Z,24.26
2023-05-21T11:07:44.749Z,24.05
2023-05-21T11:08:46.234Z,24.14
2023-05-21T11:09:47.770Z,23.91
2023-05-21T11:10:49.238Z,24.05
2023-05-21T11:11:50.830Z,24.03
2023-05-21T11:12:52.360Z,23.70
2023-05-21T11:13:53.840Z,23.89
2023-05-21T11:14:55.300Z,23.10
2023-05-21T11:15:56.795Z,23.37
2023-05-21T11:16:58.811Z,23.42
2023-05-21T11:18:00.361Z,23.68
2023-05-21T11:19:01.881Z,24.02
2023-05-21T11:20:03.512Z,23.64
2023-05-21T11:21:04.973Z,23.42
2023-05-21T11:22:06.498Z,23.65
2023-05-21T11:23:07.990Z,23.74
2023-05-21T11:24:09.488Z,23.63
2023-05-21T11:25:10.992Z,23.69
2023-05-21T11:26:12.476Z,24.08
2023-05-21T11:27:14.000Z,23.46
2023-05-21T11:28:15.489Z,23.43
2023-05-21T11:29:16.967Z,23.37
2023-05-21T11:30:18.516Z,23.47
2023-05-21T11:31:20.231Z,23.37
2023-05-21T11:32:21.746Z,23.43
2023-05-21T11:33:23.734Z,23.65
2023-05-21T11:34:25.244Z,24.00
2023-05-21T11:35:26.728Z,24.08
2023-05-21T11:36:28.194Z,23.88
2023-05-21T11:37:29.692Z,24.02
2023-05-21T11:38:31.216Z,23.56
2023-05-21T11:39:32.708Z,24.10
2023-05-21T11:40:34.557Z,23.65
2023-05-21T11:41:36.262Z,23.92
2023-05-21T11:42:37.776Z,23.87
2023-05-21T11:43:39.253Z,23.54
2023-05-21T11:44:40.748Z,24.61
2023-05-21T11:45:42.236Z,24.14
2023-05-21T11:46:43.774Z,24.03
2023-05-21T11:47:45.365Z,24.24
2023-05-21T11:48:46.875Z,24.55
2023-05-21T11:49:48.329Z,24.89
2023-05-21T11:50:49.827Z,25.00
2023-05-21T11:51:51.307Z,25.00
2023-05-21T11:52:52.826Z,24.80
2023-05-21T11:53:54.342Z,24.39
2023-05-21T11:54:56.105Z,24.15
2023-05-21T11:55:57.914Z,24.04
2023-05-21T11:56:59.499Z,23.98
2023-05-21T11:58:01.107Z,24.24
2023-05-21T11:59:02.583Z,24.17
2023-05-21T12:00:04.167Z,24.65
2023-05-21T12:01:05.663Z,23.94
2023-05-21T12:02:07.163Z,23.98
2023-05-21T12:03:08.745Z,23.92
2023-05-21T12:04:10.505Z,24.02
2023-05-21T12:05:13.286Z,24.25
2023-05-21T12:06:15.026Z,24.51
2023-05-21T12:07:16.565Z,24.85
2023-05-21T12:08:18.171Z,24.95
2023-05-21T12:09:19.640Z,25.19
2023-05-21T12:10:21.209Z,25.34
2023-05-21T12:11:22.736Z,25.04
2023-05-21T12:12:24.249Z,24.93
2023-05-21T12:13:25.718Z,25.06
2023-05-21T12:14:27.307Z,25.15
2023-05-21T12:15:28.817Z,25.09
2023-05-21T12:16:30.294Z,24.96
2023-05-21T12:17:31.988Z,24.60
2023-05-21T12:18:33.585Z,25.19
2023-05-21T12:19:35.089Z,25.22
2023-05-21T12:20:36.854Z,25.43
2023-05-21T12:21:38.492Z,25.23
2023-05-21T12:22:39.989Z,25.48
2023-05-21T12:23:41.517Z,25.14
2023-05-21T12:24:43.014Z,25.00
2023-05-21T12:25:44.529Z,25.22
2023-05-21T12:26:46.060Z,25.56
2023-05-21T12:27:47.582Z,25.57
2023-05-21T12:28:49.153Z,25.43
2023-05-21T12:29:50.720Z,25.81
2023-05-21T12:30:52.233Z,24.90
2023-05-21T12:31:53.825Z,25.65
2023-05-21T12:32:55.491Z,25.27
2023-05-21T12:33:57.084Z,25.52
2023-05-21T12:34:58.635Z,25.07
2023-05-21T12:36:00.199Z,25.78
2023-05-21T12:37:01.752Z,25.40
2023-05-21T12:38:03.283Z,25.29
2023-05-21T12:39:04.868Z,25.48
2023-05-21T12:40:06.444Z,25.40
2023-05-21T12:41:07.944Z,25.47
2023-05-21T12:42:09.477Z,25.40
2023-05-21T12:43:11.162Z,25.34
2023-05-21T12:44:12.737Z,25.13
2023-05-21T12:45:14.497Z,25.18
2023-05-21T12:46:16.307Z,25.53
2023-05-21T12:47:17.945Z,25.12
2023-05-21T12:48:19.455Z,25.56
2023-05-21T12:49:21.003Z,25.39
2023-05-21T12:50:22.814Z,25.37
2023-05-21T12:51:24.324Z,25.75
2023-05-21T12:52:25.858Z,25.56
2023-05-21T12:53:27.531Z,25.61
2023-05-21T12:54:29.066Z,25.92
2023-05-21T12:55:30.586Z,25.17
2023-05-21T12:56:32.078Z,24.80
2023-05-21T12:57:33.574Z,25.32
2023-05-21T12:58:35.133Z,25.66
2023-05-21T12:59:36.806Z,24.86
2023-05-21T13:00:38.785Z,25.18
2023-05-21T13:01:40.473Z,25.55
2023-05-21T13:02:42.064Z,25.02
2023-05-21T13:03:44.262Z,25.32
2023-05-21T13:04:45.810Z,25.25
2023-05-21T13:05:47.352Z,25.55
2023-05-21T13:06:48.854Z,24.67
2023-05-21T13:07:50.351Z,25.35
2023-05-21T13:08:51.871Z,24.81
2023-05-21T13:09:53.379Z,24.93
2023-05-21T13:10:54.877Z,25.43
2023-05-21T13:11:56.373Z,25.23
2023-05-21T13:12:57.915Z,25.10
2023-05-21T13:13:59.436Z,25.11
2023-05-21T13:15:00.911Z,25.61